sensor_id;sensor_type;location;lat;lon;timestamp;temperature;humidity
7307;DHT22;3694;48.732;9.248;2023-03-31T00:00:24;9.40;99.90
7307;DHT22;3694;48.732;9.248;2023-03-31T00:02:50;9.30;99.90
7307;DHT22;3694;48.732;9.248;2023-03-31T00:05:19;9.30;99.90
7307;DHT22;3694;48.732;9.248;2023-03-31T00:07:46;9.20;99.90
7307;DHT22;3694;48.732;9.248;2023-03-31T00:10:13;9.10;99.90
7307;DHT22;3694;48.732;9.248;2023-03-31T00:12:39;9.10;99.90
7307;DHT22;3694;48.732;9.248;2023-03-31T00:15:05;9.10;99.90
7307;DHT22;3694;48.732;9.248;2023-03-31T00:17:31;9.10;99.90
7307;DHT22;3694;48.732;9.248;2023-03-31T00:19:57;9.00;99.90
7307;DHT22;3694;48.732;9.248;2023-03-31T00:22:26;9.00;99.90
7307;DHT22;3694;48.732;9.248;2023-03-31T00:24:54;8.90;99.90
7307;DHT22;3694;48.732;9.248;2023-03-31T00:27:19;8.90;99.90
7307;DHT22;3694;48.732;9.248;2023-03-31T00:29:45;8.90;99.90
7307;DHT22;3694;48.732;9.248;2023-03-31T00:32:11;8.90;99.90
7307;DHT22;3694;48.732;9.248;2023-03-31T00:34:38;8.90;99.90
7307;DHT22;3694;48.732;9.248;2023-03-31T00:37:06;9.00;99.90
7307;DHT22;3694;48.732;9.248;2023-03-31T00:39:34;9.00;99.90
7307;DHT22;3694;48.732;9.248;2023-03-31T00:42:02;9.00;99.90
7307;DHT22;3694;48.732;9.248;2023-03-31T00:44:29;9.10;99.90
7307;DHT22;3694;48.732;9.248;2023-03-31T00:47:09;9.10;99.90
7307;DHT22;3694;48.732;9.248;2023-03-31T00:49:42;9.10;99.90
7307;DHT22;3694;48.732;9.248;2023-03-31T00:52:16;9.20;99.90
7307;DHT22;3694;48.732;9.248;2023-03-31T00:54:46;9.20;99.90
7307;DHT22;3694;48.732;9.248;2023-03-31T00:57:14;9.30;99.90
7307;DHT22;3694;48.732;9.248;2023-03-31T00:59:46;9.30;99.90
7307;DHT22;3694;48.732;9.248;2023-03-31T01:02:14;9.40;99.90
7307;DHT22;3694;48.732;9.248;2023-03-31T01:04:46;9.60;99.90
7307;DHT22;3694;48.732;9.248;2023-03-31T01:07:25;9.50;99.90
7307;DHT22;3694;48.732;9.248;2023-03-31T01:09:57;9.50;99.90
7307;DHT22;3694;48.732;9.248;2023-03-31T01:12:24;9.50;99.90
7307;DHT22;3694;48.732;9.248;2023-03-31T01:14:51;9.40;99.90
7307;DHT22;3694;48.732;9.248;2023-03-31T01:17:19;9.40;99.90
7307;DHT22;3694;48.732;9.248;2023-03-31T01:20:14;9.30;99.90
7307;DHT22;3694;48.732;9.248;2023-03-31T01:36:57;9.00;99.90
7307;DHT22;3694;48.732;9.248;2023-03-31T01:39:59;9.00;99.90
7307;DHT22;3694;48.732;9.248;2023-03-31T01:45:40;9.20;99.90
7307;DHT22;3694;48.732;9.248;2023-03-31T01:48:14;9.40;99.90
7307;DHT22;3694;48.732;9.248;2023-03-31T01:50:50;9.40;99.90
7307;DHT22;3694;48.732;9.248;2023-03-31T01:53:35;9.50;99.90
7307;DHT22;3694;48.732;9.248;2023-03-31T01:56:25;9.50;99.90
7307;DHT22;3694;48.732;9.248;2023-03-31T01:59:02;9.60;99.90
7307;DHT22;3694;48.732;9.248;2023-03-31T02:01:34;9.60;99.90
7307;DHT22;3694;48.732;9.248;2023-03-31T02:04:06;9.70;99.90
7307;DHT22;3694;48.732;9.248;2023-03-31T02:06:37;9.80;99.90
7307;DHT22;3694;48.732;9.248;2023-03-31T02:09:12;9.90;99.90
7307;DHT22;3694;48.732;9.248;2023-03-31T02:11:40;9.90;99.90
7307;DHT22;3694;48.732;9.248;2023-03-31T02:14:09;9.90;99.90
7307;DHT22;3694;48.732;9.248;2023-03-31T02:16:38;9.90;99.90
7307;DHT22;3694;48.732;9.248;2023-03-31T02:19:07;10.00;99.90
7307;DHT22;3694;48.732;9.248;2023-03-31T02:21:36;10.10;99.90
7307;DHT22;3694;48.732;9.248;2023-03-31T02:24:10;10.10;99.90
7307;DHT22;3694;48.732;9.248;2023-03-31T02:26:40;10.10;99.90
7307;DHT22;3694;48.732;9.248;2023-03-31T02:29:07;10.00;99.90
7307;DHT22;3694;48.732;9.248;2023-03-31T02:31:55;9.90;99.90
7307;DHT22;3694;48.732;9.248;2023-03-31T02:34:22;9.90;99.90
7307;DHT22;3694;48.732;9.248;2023-03-31T02:36:49;9.80;99.90
7307;DHT22;3694;48.732;9.248;2023-03-31T02:39:18;9.70;99.90
7307;DHT22;3694;48.732;9.248;2023-03-31T02:41:45;9.60;99.90
7307;DHT22;3694;48.732;9.248;2023-03-31T02:44:11;9.60;99.90
7307;DHT22;3694;48.732;9.248;2023-03-31T02:46:37;9.50;99.90
7307;DHT22;3694;48.732;9.248;2023-03-31T02:49:05;9.50;99.90
7307;DHT22;3694;48.732;9.248;2023-03-31T02:57:19;9.30;99.90
7307;DHT22;3694;48.732;9.248;2023-03-31T03:00:07;9.20;99.90
7307;DHT22;3694;48.732;9.248;2023-03-31T03:05:18;9.10;99.90
7307;DHT22;3694;48.732;9.248;2023-03-31T03:13:30;9.00;99.90
7307;DHT22;3694;48.732;9.248;2023-03-31T03:16:08;9.00;99.90
7307;DHT22;3694;48.732;9.248;2023-03-31T03:18:38;9.00;99.90
7307;DHT22;3694;48.732;9.248;2023-03-31T03:21:04;9.00;99.90
7307;DHT22;3694;48.732;9.248;2023-03-31T03:23:29;8.90;99.90
7307;DHT22;3694;48.732;9.248;2023-03-31T03:25:55;8.90;99.90
7307;DHT22;3694;48.732;9.248;2023-03-31T03:28:21;8.80;99.90
7307;DHT22;3694;48.732;9.248;2023-03-31T03:30:47;8.70;99.90
7307;DHT22;3694;48.732;9.248;2023-03-31T03:33:12;8.60;99.90
7307;DHT22;3694;48.732;9.248;2023-03-31T03:35:41;8.50;99.90
7307;DHT22;3694;48.732;9.248;2023-03-31T03:38:07;8.50;99.90
7307;DHT22;3694;48.732;9.248;2023-03-31T03:40:32;8.50;99.90
7307;DHT22;3694;48.732;9.248;2023-03-31T03:42:58;8.50;99.90
7307;DHT22;3694;48.732;9.248;2023-03-31T03:45:23;8.50;99.90
7307;DHT22;3694;48.732;9.248;2023-03-31T03:47:49;8.60;99.90
7307;DHT22;3694;48.732;9.248;2023-03-31T03:50:15;8.60;99.90
7307;DHT22;3694;48.732;9.248;2023-03-31T03:52:40;8.60;99.90
7307;DHT22;3694;48.732;9.248;2023-03-31T03:55:06;8.60;99.90
7307;DHT22;3694;48.732;9.248;2023-03-31T03:57:32;8.60;99.90
7307;DHT22;3694;48.732;9.248;2023-03-31T03:59:57;8.60;99.90
7307;DHT22;3694;48.732;9.248;2023-03-31T04:02:23;8.60;99.90
7307;DHT22;3694;48.732;9.248;2023-03-31T04:04:48;8.60;99.90
7307;DHT22;3694;48.732;9.248;2023-03-31T04:07:14;8.60;99.90
7307;DHT22;3694;48.732;9.248;2023-03-31T04:09:39;8.50;99.90
7307;DHT22;3694;48.732;9.248;2023-03-31T04:12:05;8.40;99.90
7307;DHT22;3694;48.732;9.248;2023-03-31T04:14:30;8.30;99.90
7307;DHT22;3694;48.732;9.248;2023-03-31T04:16:56;8.30;99.90
7307;DHT22;3694;48.732;9.248;2023-03-31T04:19:22;8.20;99.90
7307;DHT22;3694;48.732;9.248;2023-03-31T04:21:53;8.10;99.90
7307;DHT22;3694;48.732;9.248;2023-03-31T04:24:29;8.10;99.90
7307;DHT22;3694;48.732;9.248;2023-03-31T04:26:59;8.00;99.90
7307;DHT22;3694;48.732;9.248;2023-03-31T04:29:25;8.00;99.90
7307;DHT22;3694;48.732;9.248;2023-03-31T04:31:55;8.00;99.90
7307;DHT22;3694;48.732;9.248;2023-03-31T04:34:24;8.10;99.90
7307;DHT22;3694;48.732;9.248;2023-03-31T04:36:59;8.10;99.90
7307;DHT22;3694;48.732;9.248;2023-03-31T04:39:27;8.20;99.90
7307;DHT22;3694;48.732;9.248;2023-03-31T04:41:55;8.30;99.90
7307;DHT22;3694;48.732;9.248;2023-03-31T04:44:21;8.30;99.90
7307;DHT22;3694;48.732;9.248;2023-03-31T04:46:46;8.40;99.90
7307;DHT22;3694;48.732;9.248;2023-03-31T04:49:12;8.40;99.90
7307;DHT22;3694;48.732;9.248;2023-03-31T04:51:37;8.40;99.90
7307;DHT22;3694;48.732;9.248;2023-03-31T04:54:03;8.50;99.90
7307;DHT22;3694;48.732;9.248;2023-03-31T04:56:28;8.50;99.90
7307;DHT22;3694;48.732;9.248;2023-03-31T04:58:54;8.50;99.90
7307;DHT22;3694;48.732;9.248;2023-03-31T05:01:20;8.60;99.90
7307;DHT22;3694;48.732;9.248;2023-03-31T05:03:46;8.70;99.90
7307;DHT22;3694;48.732;9.248;2023-03-31T05:06:15;8.70;99.90
7307;DHT22;3694;48.732;9.248;2023-03-31T05:08:42;8.70;99.90
7307;DHT22;3694;48.732;9.248;2023-03-31T05:11:08;8.70;99.90
7307;DHT22;3694;48.732;9.248;2023-03-31T05:13:33;8.70;99.90
7307;DHT22;3694;48.732;9.248;2023-03-31T05:16:05;8.60;99.90
7307;DHT22;3694;48.732;9.248;2023-03-31T05:18:31;8.60;99.90
7307;DHT22;3694;48.732;9.248;2023-03-31T05:20:56;8.60;99.90
7307;DHT22;3694;48.732;9.248;2023-03-31T05:23:22;8.60;99.90
7307;DHT22;3694;48.732;9.248;2023-03-31T05:25:47;8.50;99.90
7307;DHT22;3694;48.732;9.248;2023-03-31T05:28:13;8.50;99.90
7307;DHT22;3694;48.732;9.248;2023-03-31T05:30:39;8.50;99.90
7307;DHT22;3694;48.732;9.248;2023-03-31T05:33:04;8.50;99.90
7307;DHT22;3694;48.732;9.248;2023-03-31T05:35:30;8.50;99.90
7307;DHT22;3694;48.732;9.248;2023-03-31T05:37:55;8.50;99.90
7307;DHT22;3694;48.732;9.248;2023-03-31T05:40:21;8.50;99.90
7307;DHT22;3694;48.732;9.248;2023-03-31T05:42:46;8.50;99.90
7307;DHT22;3694;48.732;9.248;2023-03-31T05:45:12;8.40;99.90
7307;DHT22;3694;48.732;9.248;2023-03-31T05:47:38;8.40;99.90
7307;DHT22;3694;48.732;9.248;2023-03-31T05:50:04;8.40;99.90
7307;DHT22;3694;48.732;9.248;2023-03-31T05:52:32;8.40;99.90
7307;DHT22;3694;48.732;9.248;2023-03-31T05:54:57;8.30;99.90
7307;DHT22;3694;48.732;9.248;2023-03-31T05:57:23;8.30;99.90
7307;DHT22;3694;48.732;9.248;2023-03-31T05:59:48;8.30;99.90
7307;DHT22;3694;48.732;9.248;2023-03-31T06:02:14;8.30;99.90
7307;DHT22;3694;48.732;9.248;2023-03-31T06:04:39;8.30;99.90
7307;DHT22;3694;48.732;9.248;2023-03-31T06:07:05;8.30;99.90
7307;DHT22;3694;48.732;9.248;2023-03-31T06:09:30;8.30;99.90
7307;DHT22;3694;48.732;9.248;2023-03-31T06:11:56;8.20;99.90
7307;DHT22;3694;48.732;9.248;2023-03-31T06:14:21;8.30;99.90
7307;DHT22;3694;48.732;9.248;2023-03-31T06:16:47;8.20;99.90
7307;DHT22;3694;48.732;9.248;2023-03-31T06:19:13;8.30;99.90
7307;DHT22;3694;48.732;9.248;2023-03-31T06:21:39;8.30;99.90
7307;DHT22;3694;48.732;9.248;2023-03-31T06:24:04;8.30;99.90
7307;DHT22;3694;48.732;9.248;2023-03-31T06:26:30;8.40;99.90
7307;DHT22;3694;48.732;9.248;2023-03-31T06:28:56;8.40;99.90
7307;DHT22;3694;48.732;9.248;2023-03-31T06:31:23;8.50;99.90
7307;DHT22;3694;48.732;9.248;2023-03-31T06:33:49;8.50;99.90
7307;DHT22;3694;48.732;9.248;2023-03-31T06:36:17;8.50;99.90
7307;DHT22;3694;48.732;9.248;2023-03-31T06:38:43;8.50;99.90
7307;DHT22;3694;48.732;9.248;2023-03-31T06:41:11;8.50;99.90
7307;DHT22;3694;48.732;9.248;2023-03-31T06:43:37;8.50;99.90
7307;DHT22;3694;48.732;9.248;2023-03-31T06:46:03;8.40;99.90
7307;DHT22;3694;48.732;9.248;2023-03-31T06:48:29;8.40;99.90
7307;DHT22;3694;48.732;9.248;2023-03-31T06:50:57;8.40;99.90
7307;DHT22;3694;48.732;9.248;2023-03-31T06:53:23;8.40;99.90
7307;DHT22;3694;48.732;9.248;2023-03-31T06:55:49;8.40;99.90
7307;DHT22;3694;48.732;9.248;2023-03-31T06:58:15;8.40;99.90
7307;DHT22;3694;48.732;9.248;2023-03-31T07:00:40;8.40;99.90
7307;DHT22;3694;48.732;9.248;2023-03-31T07:03:06;8.40;99.90
7307;DHT22;3694;48.732;9.248;2023-03-31T07:05:33;8.40;99.90
7307;DHT22;3694;48.732;9.248;2023-03-31T07:07:59;8.50;99.90
7307;DHT22;3694;48.732;9.248;2023-03-31T07:10:27;8.60;99.90
7307;DHT22;3694;48.732;9.248;2023-03-31T07:12:53;8.60;99.90
7307;DHT22;3694;48.732;9.248;2023-03-31T07:15:19;8.60;99.90
7307;DHT22;3694;48.732;9.248;2023-03-31T07:17:45;8.60;99.90
7307;DHT22;3694;48.732;9.248;2023-03-31T07:20:16;8.70;99.90
7307;DHT22;3694;48.732;9.248;2023-03-31T07:22:46;8.70;99.90
7307;DHT22;3694;48.732;9.248;2023-03-31T07:25:14;8.80;99.90
7307;DHT22;3694;48.732;9.248;2023-03-31T07:27:42;9.00;99.90
7307;DHT22;3694;48.732;9.248;2023-03-31T07:30:10;9.00;99.90
7307;DHT22;3694;48.732;9.248;2023-03-31T07:32:36;9.10;99.90
7307;DHT22;3694;48.732;9.248;2023-03-31T07:35:05;9.10;99.90
7307;DHT22;3694;48.732;9.248;2023-03-31T07:37:38;9.10;99.90
7307;DHT22;3694;48.732;9.248;2023-03-31T07:40:11;9.10;99.90
7307;DHT22;3694;48.732;9.248;2023-03-31T07:42:36;9.10;99.90
7307;DHT22;3694;48.732;9.248;2023-03-31T07:45:03;9.20;99.90
7307;DHT22;3694;48.732;9.248;2023-03-31T07:47:31;9.20;99.90
7307;DHT22;3694;48.732;9.248;2023-03-31T07:49:57;9.20;99.90
7307;DHT22;3694;48.732;9.248;2023-03-31T07:52:22;9.40;99.90
7307;DHT22;3694;48.732;9.248;2023-03-31T07:54:48;9.60;99.90
7307;DHT22;3694;48.732;9.248;2023-03-31T07:57:14;9.80;99.90
7307;DHT22;3694;48.732;9.248;2023-03-31T07:59:41;9.80;99.90
7307;DHT22;3694;48.732;9.248;2023-03-31T08:02:06;10.00;99.90
7307;DHT22;3694;48.732;9.248;2023-03-31T08:04:32;10.10;99.90
7307;DHT22;3694;48.732;9.248;2023-03-31T08:06:57;10.40;99.90
7307;DHT22;3694;48.732;9.248;2023-03-31T08:09:23;10.60;99.90
7307;DHT22;3694;48.732;9.248;2023-03-31T08:11:48;10.50;99.90
7307;DHT22;3694;48.732;9.248;2023-03-31T08:14:15;10.30;99.90
7307;DHT22;3694;48.732;9.248;2023-03-31T08:16:40;10.70;99.90
7307;DHT22;3694;48.732;9.248;2023-03-31T08:19:06;11.30;99.90
7307;DHT22;3694;48.732;9.248;2023-03-31T08:21:32;11.90;99.90
7307;DHT22;3694;48.732;9.248;2023-03-31T08:23:57;12.70;99.90
7307;DHT22;3694;48.732;9.248;2023-03-31T08:26:23;13.20;99.90
7307;DHT22;3694;48.732;9.248;2023-03-31T08:28:50;13.50;99.90
7307;DHT22;3694;48.732;9.248;2023-03-31T08:31:19;13.70;99.90
7307;DHT22;3694;48.732;9.248;2023-03-31T08:33:45;13.80;99.00
7307;DHT22;3694;48.732;9.248;2023-03-31T08:36:12;13.80;99.10
7307;DHT22;3694;48.732;9.248;2023-03-31T08:38:39;13.70;99.10
7307;DHT22;3694;48.732;9.248;2023-03-31T08:41:41;14.10;99.00
7307;DHT22;3694;48.732;9.248;2023-03-31T08:44:20;14.20;98.60
7307;DHT22;3694;48.732;9.248;2023-03-31T08:46:48;14.40;98.50
7307;DHT22;3694;48.732;9.248;2023-03-31T08:49:18;14.10;98.30
7307;DHT22;3694;48.732;9.248;2023-03-31T08:51:48;14.20;98.10
7307;DHT22;3694;48.732;9.248;2023-03-31T08:56:46;14.20;97.50
7307;DHT22;3694;48.732;9.248;2023-03-31T08:59:29;14.10;97.60
7307;DHT22;3694;48.732;9.248;2023-03-31T09:02:22;14.30;98.50
7307;DHT22;3694;48.732;9.248;2023-03-31T09:07:49;14.70;97.10
7307;DHT22;3694;48.732;9.248;2023-03-31T09:13:05;14.60;97.50
7307;DHT22;3694;48.732;9.248;2023-03-31T09:15:44;14.80;96.60
7307;DHT22;3694;48.732;9.248;2023-03-31T09:18:25;14.20;96.20
7307;DHT22;3694;48.732;9.248;2023-03-31T09:20:54;14.00;96.70
7307;DHT22;3694;48.732;9.248;2023-03-31T09:26:48;14.50;96.40
7307;DHT22;3694;48.732;9.248;2023-03-31T09:29:21;14.50;96.10
7307;DHT22;3694;48.732;9.248;2023-03-31T09:31:49;15.00;95.60
7307;DHT22;3694;48.732;9.248;2023-03-31T09:34:21;15.30;95.20
7307;DHT22;3694;48.732;9.248;2023-03-31T09:36:48;15.40;95.00
7307;DHT22;3694;48.732;9.248;2023-03-31T09:39:14;15.20;94.70
7307;DHT22;3694;48.732;9.248;2023-03-31T09:41:45;15.00;95.00
7307;DHT22;3694;48.732;9.248;2023-03-31T09:44:22;14.60;94.80
7307;DHT22;3694;48.732;9.248;2023-03-31T09:46:50;14.40;94.60
7307;DHT22;3694;48.732;9.248;2023-03-31T09:49:20;14.40;95.10
7307;DHT22;3694;48.732;9.248;2023-03-31T09:51:48;14.60;95.40
7307;DHT22;3694;48.732;9.248;2023-03-31T09:54:26;14.50;94.40
7307;DHT22;3694;48.732;9.248;2023-03-31T09:56:54;14.60;93.50
7307;DHT22;3694;48.732;9.248;2023-03-31T09:59:30;14.50;93.10
7307;DHT22;3694;48.732;9.248;2023-03-31T10:01:59;14.50;92.60
7307;DHT22;3694;48.732;9.248;2023-03-31T10:04:29;14.60;92.90
7307;DHT22;3694;48.732;9.248;2023-03-31T10:06:56;15.10;92.30
7307;DHT22;3694;48.732;9.248;2023-03-31T10:09:30;15.40;91.60
7307;DHT22;3694;48.732;9.248;2023-03-31T10:12:03;15.50;91.70
7307;DHT22;3694;48.732;9.248;2023-03-31T10:14:43;14.70;90.30
7307;DHT22;3694;48.732;9.248;2023-03-31T10:17:14;14.60;90.60
7307;DHT22;3694;48.732;9.248;2023-03-31T10:24:47;14.80;90.20
7307;DHT22;3694;48.732;9.248;2023-03-31T10:27:22;15.10;90.40
7307;DHT22;3694;48.732;9.248;2023-03-31T10:29:55;15.20;88.70
7307;DHT22;3694;48.732;9.248;2023-03-31T10:32:22;15.30;88.20
7307;DHT22;3694;48.732;9.248;2023-03-31T10:34:49;15.80;89.90
7307;DHT22;3694;48.732;9.248;2023-03-31T10:37:21;16.20;87.50
7307;DHT22;3694;48.732;9.248;2023-03-31T10:39:55;16.60;85.60
7307;DHT22;3694;48.732;9.248;2023-03-31T10:42:21;16.50;81.60
7307;DHT22;3694;48.732;9.248;2023-03-31T10:44:47;16.20;82.20
7307;DHT22;3694;48.732;9.248;2023-03-31T10:49:40;16.00;80.50
7307;DHT22;3694;48.732;9.248;2023-03-31T10:52:24;16.10;81.10
7307;DHT22;3694;48.732;9.248;2023-03-31T10:55:00;16.10;82.00
7307;DHT22;3694;48.732;9.248;2023-03-31T10:57:48;16.10;81.10
7307;DHT22;3694;48.732;9.248;2023-03-31T11:01:01;15.70;77.70
7307;DHT22;3694;48.732;9.248;2023-03-31T11:06:25;15.90;78.60
7307;DHT22;3694;48.732;9.248;2023-03-31T11:08:58;16.20;77.90
7307;DHT22;3694;48.732;9.248;2023-03-31T11:14:04;15.50;76.80
7307;DHT22;3694;48.732;9.248;2023-03-31T11:16:57;15.40;78.10
7307;DHT22;3694;48.732;9.248;2023-03-31T11:19:43;15.00;77.80
7307;DHT22;3694;48.732;9.248;2023-03-31T11:22:29;14.50;78.90
7307;DHT22;3694;48.732;9.248;2023-03-31T11:25:12;14.00;80.90
7307;DHT22;3694;48.732;9.248;2023-03-31T11:28:20;11.80;99.90
7307;DHT22;3694;48.732;9.248;2023-03-31T11:34:14;8.60;99.90
7307;DHT22;3694;48.732;9.248;2023-03-31T11:37:17;8.10;99.90
7307;DHT22;3694;48.732;9.248;2023-03-31T11:40:04;7.90;99.90
7307;DHT22;3694;48.732;9.248;2023-03-31T11:42:41;7.90;99.90
7307;DHT22;3694;48.732;9.248;2023-03-31T11:45:20;7.90;99.90
7307;DHT22;3694;48.732;9.248;2023-03-31T11:47:51;8.00;99.90
7307;DHT22;3694;48.732;9.248;2023-03-31T11:50:27;8.10;99.90
7307;DHT22;3694;48.732;9.248;2023-03-31T11:53:02;8.10;99.90
7307;DHT22;3694;48.732;9.248;2023-03-31T11:55:30;8.20;99.90
7307;DHT22;3694;48.732;9.248;2023-03-31T11:58:04;8.40;99.90
7307;DHT22;3694;48.732;9.248;2023-03-31T12:01:03;8.70;99.90
7307;DHT22;3694;48.732;9.248;2023-03-31T12:06:17;9.70;99.90
7307;DHT22;3694;48.732;9.248;2023-03-31T12:11:45;11.40;99.90
7307;DHT22;3694;48.732;9.248;2023-03-31T12:14:33;12.30;99.90
7307;DHT22;3694;48.732;9.248;2023-03-31T12:17:09;12.50;99.90
7307;DHT22;3694;48.732;9.248;2023-03-31T12:22:17;12.60;97.70
7307;DHT22;3694;48.732;9.248;2023-03-31T12:24:44;12.50;97.70
7307;DHT22;3694;48.732;9.248;2023-03-31T12:27:23;12.10;97.00
7307;DHT22;3694;48.732;9.248;2023-03-31T12:30:12;12.30;98.20
7307;DHT22;3694;48.732;9.248;2023-03-31T12:32:44;13.00;97.90
7307;DHT22;3694;48.732;9.248;2023-03-31T12:35:27;13.40;97.40
7307;DHT22;3694;48.732;9.248;2023-03-31T12:41:37;13.10;95.80
7307;DHT22;3694;48.732;9.248;2023-03-31T12:44:04;13.10;95.70
7307;DHT22;3694;48.732;9.248;2023-03-31T12:51:58;13.30;95.40
7307;DHT22;3694;48.732;9.248;2023-03-31T12:59:39;14.20;93.80
7307;DHT22;3694;48.732;9.248;2023-03-31T13:04:35;14.40;93.20
7307;DHT22;3694;48.732;9.248;2023-03-31T13:07:02;14.70;92.60
7307;DHT22;3694;48.732;9.248;2023-03-31T13:09:45;14.50;92.10
7307;DHT22;3694;48.732;9.248;2023-03-31T13:12:19;14.30;91.20
7307;DHT22;3694;48.732;9.248;2023-03-31T13:14:48;13.70;91.20
7307;DHT22;3694;48.732;9.248;2023-03-31T13:20:14;13.30;92.00
7307;DHT22;3694;48.732;9.248;2023-03-31T13:22:44;13.00;92.30
7307;DHT22;3694;48.732;9.248;2023-03-31T13:25:34;12.80;92.50
7307;DHT22;3694;48.732;9.248;2023-03-31T13:28:25;12.60;94.70
7307;DHT22;3694;48.732;9.248;2023-03-31T13:31:00;12.10;95.10
7307;DHT22;3694;48.732;9.248;2023-03-31T13:33:52;11.70;98.40
7307;DHT22;3694;48.732;9.248;2023-03-31T13:42:10;10.60;99.90
7307;DHT22;3694;48.732;9.248;2023-03-31T13:44:46;10.60;99.90
7307;DHT22;3694;48.732;9.248;2023-03-31T13:47:44;10.50;99.90
7307;DHT22;3694;48.732;9.248;2023-03-31T13:50:29;10.20;99.90
7307;DHT22;3694;48.732;9.248;2023-03-31T13:55:53;9.30;99.90
7307;DHT22;3694;48.732;9.248;2023-03-31T14:06:49;8.80;99.90
7307;DHT22;3694;48.732;9.248;2023-03-31T14:09:31;8.80;99.90
7307;DHT22;3694;48.732;9.248;2023-03-31T14:11:58;8.70;99.90
7307;DHT22;3694;48.732;9.248;2023-03-31T14:14:25;8.80;99.90
7307;DHT22;3694;48.732;9.248;2023-03-31T14:16:59;9.40;99.90
7307;DHT22;3694;48.732;9.248;2023-03-31T14:22:17;10.90;99.90
7307;DHT22;3694;48.732;9.248;2023-03-31T14:24:55;11.50;99.90
7307;DHT22;3694;48.732;9.248;2023-03-31T14:30:14;11.90;99.10
7307;DHT22;3694;48.732;9.248;2023-03-31T14:33:12;11.70;99.10
7307;DHT22;3694;48.732;9.248;2023-03-31T14:36:10;11.40;99.30
7307;DHT22;3694;48.732;9.248;2023-03-31T14:38:37;11.00;99.90
7307;DHT22;3694;48.732;9.248;2023-03-31T14:41:03;10.80;99.50
7307;DHT22;3694;48.732;9.248;2023-03-31T14:43:35;11.20;99.90
7307;DHT22;3694;48.732;9.248;2023-03-31T14:46:05;11.80;99.80
7307;DHT22;3694;48.732;9.248;2023-03-31T14:48:40;12.10;98.20
7307;DHT22;3694;48.732;9.248;2023-03-31T14:51:10;12.20;97.10
7307;DHT22;3694;48.732;9.248;2023-03-31T14:53:38;12.20;97.30
7307;DHT22;3694;48.732;9.248;2023-03-31T14:56:07;12.20;97.50
7307;DHT22;3694;48.732;9.248;2023-03-31T14:58:37;12.50;97.60
7307;DHT22;3694;48.732;9.248;2023-03-31T15:01:05;12.60;97.90
7307;DHT22;3694;48.732;9.248;2023-03-31T15:03:34;12.60;97.60
7307;DHT22;3694;48.732;9.248;2023-03-31T15:06:02;12.60;97.00
7307;DHT22;3694;48.732;9.248;2023-03-31T15:08:30;12.60;97.20
7307;DHT22;3694;48.732;9.248;2023-03-31T15:10:58;12.80;97.30
7307;DHT22;3694;48.732;9.248;2023-03-31T15:13:51;12.60;97.20
7307;DHT22;3694;48.732;9.248;2023-03-31T15:16:41;12.70;97.40
7307;DHT22;3694;48.732;9.248;2023-03-31T15:19:17;12.50;97.20
7307;DHT22;3694;48.732;9.248;2023-03-31T15:21:43;12.50;97.70
7307;DHT22;3694;48.732;9.248;2023-03-31T15:24:11;12.50;97.70
7307;DHT22;3694;48.732;9.248;2023-03-31T15:26:43;12.30;98.00
7307;DHT22;3694;48.732;9.248;2023-03-31T15:29:36;12.10;98.00
7307;DHT22;3694;48.732;9.248;2023-03-31T15:32:07;12.10;97.40
7307;DHT22;3694;48.732;9.248;2023-03-31T15:34:36;11.70;97.80
7307;DHT22;3694;48.732;9.248;2023-03-31T15:37:02;11.70;98.00
7307;DHT22;3694;48.732;9.248;2023-03-31T15:39:30;11.60;98.00
7307;DHT22;3694;48.732;9.248;2023-03-31T15:41:57;11.50;97.90
7307;DHT22;3694;48.732;9.248;2023-03-31T15:44:42;11.60;98.30
7307;DHT22;3694;48.732;9.248;2023-03-31T15:47:19;11.70;97.70
7307;DHT22;3694;48.732;9.248;2023-03-31T15:52:21;11.50;97.40
7307;DHT22;3694;48.732;9.248;2023-03-31T15:54:46;11.40;97.70
7307;DHT22;3694;48.732;9.248;2023-03-31T15:57:15;11.20;98.00
7307;DHT22;3694;48.732;9.248;2023-03-31T15:59:48;11.30;98.40
7307;DHT22;3694;48.732;9.248;2023-03-31T16:02:21;11.30;98.40
7307;DHT22;3694;48.732;9.248;2023-03-31T16:04:49;11.20;98.20
7307;DHT22;3694;48.732;9.248;2023-03-31T16:07:23;11.00;98.10
7307;DHT22;3694;48.732;9.248;2023-03-31T16:12:38;10.90;98.70
7307;DHT22;3694;48.732;9.248;2023-03-31T16:15:09;10.80;98.70
7307;DHT22;3694;48.732;9.248;2023-03-31T16:17:45;10.70;98.80
7307;DHT22;3694;48.732;9.248;2023-03-31T16:20:23;10.70;98.80
7307;DHT22;3694;48.732;9.248;2023-03-31T16:22:52;10.60;99.40
7307;DHT22;3694;48.732;9.248;2023-03-31T16:25:21;10.50;99.30
7307;DHT22;3694;48.732;9.248;2023-03-31T16:27:52;10.50;99.90
7307;DHT22;3694;48.732;9.248;2023-03-31T16:30:22;10.40;99.70
7307;DHT22;3694;48.732;9.248;2023-03-31T16:33:14;10.30;99.90
7307;DHT22;3694;48.732;9.248;2023-03-31T16:35:51;10.30;99.90
7307;DHT22;3694;48.732;9.248;2023-03-31T16:38:19;10.20;99.90
7307;DHT22;3694;48.732;9.248;2023-03-31T16:40:47;10.10;99.90
7307;DHT22;3694;48.732;9.248;2023-03-31T16:43:15;10.20;99.90
7307;DHT22;3694;48.732;9.248;2023-03-31T16:45:44;10.10;99.90
7307;DHT22;3694;48.732;9.248;2023-03-31T16:48:11;10.00;99.90
7307;DHT22;3694;48.732;9.248;2023-03-31T16:50:37;9.90;99.90
7307;DHT22;3694;48.732;9.248;2023-03-31T16:53:02;9.70;99.40
7307;DHT22;3694;48.732;9.248;2023-03-31T16:55:29;9.30;99.80
7307;DHT22;3694;48.732;9.248;2023-03-31T16:57:56;9.50;99.90
7307;DHT22;3694;48.732;9.248;2023-03-31T17:00:23;9.40;99.90
7307;DHT22;3694;48.732;9.248;2023-03-31T17:02:49;9.30;99.90
7307;DHT22;3694;48.732;9.248;2023-03-31T17:05:14;9.20;99.90
7307;DHT22;3694;48.732;9.248;2023-03-31T17:07:40;9.20;99.90
7307;DHT22;3694;48.732;9.248;2023-03-31T17:10:06;9.10;99.90
7307;DHT22;3694;48.732;9.248;2023-03-31T17:12:32;9.00;99.90
7307;DHT22;3694;48.732;9.248;2023-03-31T17:14:57;9.00;99.90
7307;DHT22;3694;48.732;9.248;2023-03-31T17:17:23;9.00;99.90
7307;DHT22;3694;48.732;9.248;2023-03-31T17:19:48;8.90;99.90
7307;DHT22;3694;48.732;9.248;2023-03-31T17:22:14;8.90;99.90
7307;DHT22;3694;48.732;9.248;2023-03-31T17:24:40;8.80;99.90
7307;DHT22;3694;48.732;9.248;2023-03-31T17:27:06;8.80;99.90
7307;DHT22;3694;48.732;9.248;2023-03-31T17:29:31;8.70;99.90
7307;DHT22;3694;48.732;9.248;2023-03-31T17:31:57;8.60;99.90
7307;DHT22;3694;48.732;9.248;2023-03-31T17:34:22;8.60;99.90
7307;DHT22;3694;48.732;9.248;2023-03-31T17:36:48;8.50;99.90
7307;DHT22;3694;48.732;9.248;2023-03-31T17:39:14;8.50;99.90
7307;DHT22;3694;48.732;9.248;2023-03-31T17:41:40;8.50;99.90
7307;DHT22;3694;48.732;9.248;2023-03-31T17:44:06;8.50;99.90
7307;DHT22;3694;48.732;9.248;2023-03-31T17:46:33;8.50;99.90
7307;DHT22;3694;48.732;9.248;2023-03-31T17:48:59;8.50;99.90
7307;DHT22;3694;48.732;9.248;2023-03-31T17:51:25;8.50;99.90
7307;DHT22;3694;48.732;9.248;2023-03-31T17:53:52;8.50;99.90
7307;DHT22;3694;48.732;9.248;2023-03-31T17:56:18;8.50;99.90
7307;DHT22;3694;48.732;9.248;2023-03-31T17:58:44;8.50;99.90
7307;DHT22;3694;48.732;9.248;2023-03-31T18:01:11;8.50;99.90
7307;DHT22;3694;48.732;9.248;2023-03-31T18:03:37;8.50;99.90
7307;DHT22;3694;48.732;9.248;2023-03-31T18:06:07;8.50;99.90
7307;DHT22;3694;48.732;9.248;2023-03-31T18:08:35;8.50;99.90
7307;DHT22;3694;48.732;9.248;2023-03-31T18:11:02;8.50;99.90
7307;DHT22;3694;48.732;9.248;2023-03-31T18:13:29;8.50;99.90
7307;DHT22;3694;48.732;9.248;2023-03-31T18:15:55;8.50;99.90
7307;DHT22;3694;48.732;9.248;2023-03-31T18:18:21;8.50;99.90
7307;DHT22;3694;48.732;9.248;2023-03-31T18:20:47;8.50;99.90
7307;DHT22;3694;48.732;9.248;2023-03-31T18:23:13;8.50;99.90
7307;DHT22;3694;48.732;9.248;2023-03-31T18:25:41;8.50;99.90
7307;DHT22;3694;48.732;9.248;2023-03-31T18:28:09;8.40;99.90